Time;durP1;ratioP1;P1;durP2;ratioP2;P2;SDS_P1;SDS_P2;PMS_P1;PMS_P2;Temp;Humidity;BMP_temperature;BMP_pressure;BME280_temperature;BME280_humidity;BME280_pressure;Samples;Min_cycle;Max_cycle;Signal;HPM_P1;HPM_P2
2020/12/12 00:00:46;;;;;;;130.20;30.10;;;0.40;99.90;;;;;;4870628;28;20084;-84
2020/12/12 00:03:09;;;;;;;152.05;32.90;;;0.40;99.90;;;;;;4871774;28;20164;-83
2020/12/12 00:05:34;;;;;;;157.48;35.67;;;0.40;99.90;;;;;;4868811;28;20124;-84
2020/12/12 00:07:58;;;;;;;164.75;35.38;;;0.50;99.90;;;;;;4871106;28;20154;-84
2020/12/12 00:10:29;;;;;;;142.10;32.10;;;0.50;99.90;;;;;;4872320;28;20086;-84
2020/12/12 00:12:52;;;;;;;155.70;31.60;;;0.50;99.90;;;;;;4847958;28;20535;-82
2020/12/12 00:15:15;;;;;;;153.25;33.05;;;0.50;99.90;;;;;;4870587;28;20097;-84
2020/12/12 00:17:40;;;;;;;163.05;36.60;;;0.40;99.90;;;;;;4867404;28;20087;-84
2020/12/12 00:20:13;;;;;;;174.45;39.25;;;0.40;99.90;;;;;;4861358;28;20095;-83
2020/12/12 00:22:39;;;;;;;192.65;42.20;;;0.50;99.90;;;;;;4865992;28;20094;-82
2020/12/12 00:25:03;;;;;;;147.10;31.67;;;0.50;99.90;;;;;;4862367;28;20086;-84
2020/12/12 00:27:26;;;;;;;150.30;34.65;;;0.50;99.90;;;;;;4866160;28;20094;-85
2020/12/12 00:29:49;;;;;;;126.53;28.67;;;0.50;99.90;;;;;;4867748;28;20090;-84
2020/12/12 00:32:18;;;;;;;152.05;33.22;;;0.50;99.90;;;;;;4852999;28;20093;-84
2020/12/12 00:34:42;;;;;;;120.13;29.15;;;0.50;99.90;;;;;;4857992;28;20137;-84
2020/12/12 00:37:11;;;;;;;121.40;28.95;;;0.50;99.90;;;;;;4857082;28;20090;-84
2020/12/12 00:39:40;;;;;;;134.27;28.23;;;0.50;99.90;;;;;;4865388;28;20086;-84
2020/12/12 00:42:03;;;;;;;148.43;28.58;;;0.60;99.90;;;;;;4863029;28;20096;-83
2020/12/12 00:44:27;;;;;;;147.30;26.48;;;0.60;99.90;;;;;;4858664;28;20102;-83
2020/12/12 00:46:54;;;;;;;141.55;29.65;;;0.60;99.90;;;;;;4861793;28;20103;-84
2020/12/12 00:49:19;;;;;;;144.98;28.95;;;0.60;99.90;;;;;;4865967;28;20100;-83
2020/12/12 00:51:42;;;;;;;139.98;28.30;;;0.60;99.90;;;;;;4861010;28;20100;-84
2020/12/12 00:54:06;;;;;;;146.00;30.13;;;0.70;99.90;;;;;;4853740;28;20082;-82
2020/12/12 00:56:31;;;;;;;148.82;27.92;;;0.70;99.90;;;;;;4862219;28;20541;-84
2020/12/12 00:58:54;;;;;;;132.50;27.67;;;0.70;99.90;;;;;;4865170;28;20111;-85
2020/12/12 01:01:19;;;;;;;128.30;27.35;;;0.70;99.90;;;;;;4854190;28;20089;-84
2020/12/12 01:03:43;;;;;;;143.52;28.88;;;0.70;99.90;;;;;;4858301;28;20107;-85
2020/12/12 01:06:10;;;;;;;155.52;29.50;;;0.70;99.90;;;;;;4863943;28;20090;-85
2020/12/12 01:08:34;;;;;;;145.20;29.65;;;0.70;99.90;;;;;;4868329;28;20246;-85
2020/12/12 01:10:59;;;;;;;127.15;27.67;;;0.70;99.90;;;;;;4859027;28;20117;-84
2020/12/12 01:13:25;;;;;;;136.75;28.58;;;0.70;99.90;;;;;;4850632;28;23451;-83
2020/12/12 01:15:50;;;;;;;151.18;28.80;;;0.70;99.90;;;;;;4863457;28;20115;-84
2020/12/12 01:18:13;;;;;;;151.32;30.48;;;0.70;99.90;;;;;;4868987;28;20147;-84
2020/12/12 01:23:19;;;;;;;130.80;26.98;;;0.70;99.90;;;;;;4945618;27;21446;-82
2020/12/12 01:25:49;;;;;;;132.07;27.15;;;0.80;99.90;;;;;;4943596;27;20084;-83
2020/12/12 01:28:12;;;;;;;144.45;28.05;;;0.80;99.90;;;;;;4944323;27;20094;-82
2020/12/12 01:30:36;;;;;;;127.18;23.17;;;0.80;99.90;;;;;;4947625;27;20311;-83
2020/12/12 01:33:07;;;;;;;136.02;29.02;;;0.90;99.90;;;;;;4948937;27;20110;-82
2020/12/12 01:35:32;;;;;;;130.57;28.08;;;0.80;99.90;;;;;;4947567;27;20091;-82
2020/12/12 01:38:03;;;;;;;128.32;28.00;;;0.80;99.90;;;;;;4948694;27;20201;-83
2020/12/12 01:40:28;;;;;;;134.68;28.60;;;0.90;99.90;;;;;;4939349;27;20103;-82
2020/12/12 01:42:56;;;;;;;127.47;28.77;;;0.90;99.90;;;;;;4942613;27;20089;-83
2020/12/12 01:45:25;;;;;;;136.55;28.65;;;0.90;99.90;;;;;;4939610;27;20092;-82
2020/12/12 01:47:48;;;;;;;149.43;30.33;;;0.90;99.90;;;;;;4937830;27;20136;-85
2020/12/12 01:50:21;;;;;;;146.38;29.45;;;0.90;99.90;;;;;;4924752;28;20477;-82
2020/12/12 01:52:50;;;;;;;130.23;27.25;;;0.90;99.90;;;;;;4948525;27;20161;-83
2020/12/12 01:55:15;;;;;;;151.57;27.40;;;0.90;99.90;;;;;;4931334;28;20081;-81
2020/12/12 01:57:41;;;;;;;134.77;28.55;;;1.00;99.90;;;;;;4947214;27;20181;-82
2020/12/12 02:00:05;;;;;;;137.85;28.58;;;0.90;99.90;;;;;;4937248;27;20091;-82
2020/12/12 02:02:30;;;;;;;137.02;28.88;;;1.00;99.90;;;;;;4947724;27;20138;-82
2020/12/12 02:04:55;;;;;;;153.02;28.60;;;0.90;99.90;;;;;;4946210;27;20154;-81
2020/12/12 02:07:22;;;;;;;147.60;28.42;;;1.00;99.90;;;;;;4922587;28;20175;-82
2020/12/12 02:09:50;;;;;;;142.75;30.63;;;1.00;99.90;;;;;;4957269;27;20115;-83
2020/12/12 02:12:15;;;;;;;133.07;30.13;;;1.10;99.90;;;;;;4952350;27;20107;-83
2020/12/12 02:14:40;;;;;;;145.00;30.92;;;1.10;99.90;;;;;;4946460;27;20092;-81
2020/12/12 02:17:03;;;;;;;146.48;31.23;;;1.10;99.90;;;;;;4943262;27;20117;-85
2020/12/12 02:19:28;;;;;;;168.32;33.25;;;1.20;99.90;;;;;;4945324;27;20104;-82
2020/12/12 02:21:54;;;;;;;152.23;32.97;;;1.20;99.90;;;;;;4940130;27;20402;-83
2020/12/12 02:24:17;;;;;;;172.57;36.10;;;1.20;99.90;;;;;;4945689;27;20155;-82
2020/12/12 02:26:40;;;;;;;150.13;33.78;;;1.20;99.90;;;;;;4939645;27;20154;-82
2020/12/12 02:29:05;;;;;;;169.05;37.25;;;1.30;99.90;;;;;;4942543;27;20464;-82
2020/12/12 02:31:28;;;;;;;172.23;37.05;;;1.20;99.90;;;;;;4953753;27;20085;-81
2020/12/12 02:33:52;;;;;;;176.55;39.55;;;1.30;99.90;;;;;;4936657;28;20118;-82
2020/12/12 02:36:16;;;;;;;158.38;36.20;;;1.40;99.90;;;;;;4932967;28;20082;-82
2020/12/12 02:38:43;;;;;;;157.40;37.53;;;1.40;99.90;;;;;;4931424;28;20137;-81
2020/12/12 02:41:10;;;;;;;172.85;36.90;;;1.50;99.90;;;;;;4930895;28;20529;-82
2020/12/12 02:43:34;;;;;;;154.18;38.67;;;1.40;99.90;;;;;;4930290;27;20103;-82
2020/12/12 02:45:58;;;;;;;147.93;38.85;;;1.50;99.90;;;;;;4934512;27;20149;-81
2020/12/12 02:48:25;;;;;;;142.82;36.33;;;1.50;99.90;;;;;;4926029;28;20223;-81
2020/12/12 02:50:48;;;;;;;148.07;34.50;;;1.60;99.90;;;;;;4927251;28;20105;-82
2020/12/12 02:53:12;;;;;;;143.60;39.13;;;1.50;99.90;;;;;;4910527;27;20098;-81
2020/12/12 02:55:36;;;;;;;152.68;37.05;;;1.60;99.90;;;;;;4914785;28;20090;-81
2020/12/12 02:57:59;;;;;;;145.93;40.00;;;1.70;99.90;;;;;;4915883;28;20088;-81
2020/12/12 03:00:25;;;;;;;177.90;44.17;;;1.70;99.90;;;;;;4923134;28;20083;-81
2020/12/12 03:02:48;;;;;;;167.20;39.10;;;1.70;99.90;;;;;;4926663;27;20088;-81
2020/12/12 03:05:14;;;;;;;168.65;44.67;;;1.70;99.90;;;;;;4934164;28;20153;-81
2020/12/12 03:07:38;;;;;;;174.02;44.80;;;1.70;99.90;;;;;;4916601;27;20105;-81
2020/12/12 03:10:08;;;;;;;170.45;45.90;;;1.70;99.90;;;;;;4935327;27;21813;-80
2020/12/12 03:12:32;;;;;;;174.32;47.13;;;1.80;99.90;;;;;;4923331;27;20572;-79
2020/12/12 03:14:56;;;;;;;146.05;42.50;;;1.90;99.90;;;;;;4928877;27;20119;-82
2020/12/12 03:17:19;;;;;;;142.82;40.90;;;1.80;99.90;;;;;;4935834;27;20087;-81
2020/12/12 03:19:53;;;;;;;147.20;41.10;;;1.80;99.90;;;;;;4929404;27;20113;-82
2020/12/12 03:22:16;;;;;;;132.68;40.50;;;1.90;99.90;;;;;;4930749;27;20143;-81
2020/12/12 03:24:39;;;;;;;154.27;41.42;;;1.80;99.90;;;;;;4914060;28;20093;-82
2020/12/12 03:27:08;;;;;;;157.18;43.65;;;1.90;99.90;;;;;;4935150;27;20086;-79
2020/12/12 03:29:39;;;;;;;143.65;40.75;;;1.90;99.90;;;;;;4915791;28;20099;-81
2020/12/12 03:32:09;;;;;;;141.75;41.38;;;1.90;99.90;;;;;;4928874;28;20088;-82
2020/12/12 03:34:35;;;;;;;143.55;39.80;;;1.80;99.90;;;;;;4928703;28;20475;-80
2020/12/12 03:36:59;;;;;;;;;;;1.80;99.90;;;;;;4931763;28;20175;-81
2020/12/12 03:39:29;;;;;;;126.72;36.45;;;1.80;99.90;;;;;;4925998;28;20058;-81
2020/12/12 03:41:52;;;;;;;137.68;42.08;;;1.80;99.90;;;;;;4924832;28;20098;-80
2020/12/12 03:44:15;;;;;;;154.93;46.90;;;1.90;99.90;;;;;;4927767;27;20164;-81
2020/12/12 03:46:40;;;;;;;148.75;40.10;;;1.90;99.90;;;;;;4924296;27;20937;-81
2020/12/12 03:49:03;;;;;;;142.10;43.20;;;1.90;99.90;;;;;;4937113;27;20102;-81
2020/12/12 03:51:27;;;;;;;135.90;40.63;;;1.90;99.90;;;;;;4928676;27;20090;-81
2020/12/12 03:53:51;;;;;;;121.47;36.80;;;1.90;99.90;;;;;;4928268;27;20233;-80
2020/12/12 03:56:15;;;;;;;136.77;38.35;;;1.90;99.90;;;;;;4935118;27;20451;-80
2020/12/12 03:58:40;;;;;;;130.70;39.85;;;1.90;99.90;;;;;;4934144;27;20086;-80
2020/12/12 04:01:05;;;;;;;119.30;37.67;;;1.90;99.90;;;;;;4936398;27;20181;-80
2020/12/12 04:03:28;;;;;;;139.80;38.75;;;1.90;99.90;;;;;;4920622;27;20096;-80
2020/12/12 04:05:51;;;;;;;146.48;38.97;;;1.90;99.90;;;;;;4931079;27;20095;-80
2020/12/12 04:08:15;;;;;;;126.50;40.05;;;2.00;99.90;;;;;;4929304;27;20130;-80
2020/12/12 04:10:39;;;;;;;125.53;40.50;;;2.00;99.90;;;;;;4934899;27;20089;-81
2020/12/12 04:13:02;;;;;;;125.03;37.80;;;2.00;99.90;;;;;;4929905;27;21123;-80
2020/12/12 04:15:25;;;;;;;122.40;37.35;;;2.00;99.90;;;;;;4932641;27;20795;-79
2020/12/12 04:17:49;;;;;;;119.03;36.47;;;2.00;99.90;;;;;;4932356;27;20162;-80
2020/12/12 04:20:14;;;;;;;118.20;36.17;;;2.00;99.90;;;;;;4929601;27;20537;-79
2020/12/12 04:22:38;;;;;;;117.80;36.08;;;2.00;99.90;;;;;;4913955;28;20137;-79
2020/12/12 04:25:01;;;;;;;123.78;36.15;;;2.00;99.90;;;;;;4912025;28;20168;-79
2020/12/12 04:27:24;;;;;;;127.13;37.17;;;2.00;99.90;;;;;;4929650;27;20667;-79
2020/12/12 04:29:47;;;;;;;121.32;38.08;;;2.00;99.90;;;;;;4933652;27;20088;-79
2020/12/12 04:32:10;;;;;;;125.18;36.90;;;2.10;99.90;;;;;;4926284;27;20565;-79
2020/12/12 04:34:33;;;;;;;117.85;36.35;;;2.10;99.90;;;;;;4934507;27;20094;-79
2020/12/12 04:36:58;;;;;;;114.50;33.70;;;2.10;99.90;;;;;;4924534;27;20545;-79
2020/12/12 04:39:21;;;;;;;117.38;36.50;;;2.00;99.90;;;;;;4932097;28;20144;-79
2020/12/12 04:41:46;;;;;;;128.93;36.25;;;2.00;99.90;;;;;;4913593;28;20090;-80
2020/12/12 04:44:09;;;;;;;128.63;40.13;;;2.00;99.90;;;;;;4918305;27;20094;-79
2020/12/12 04:46:33;;;;;;;121.82;35.08;;;2.10;99.90;;;;;;4931088;27;20088;-80
2020/12/12 04:48:56;;;;;;;119.88;37.22;;;2.10;99.90;;;;;;4926498;28;20121;-79
2020/12/12 04:51:19;;;;;;;126.70;37.70;;;2.10;99.90;;;;;;4937074;27;20091;-82
2020/12/12 04:53:44;;;;;;;127.45;36.20;;;2.10;99.90;;;;;;4933395;28;20142;-82
2020/12/12 04:56:08;;;;;;;112.55;36.00;;;2.00;99.90;;;;;;4920765;28;20106;-82
2020/12/12 04:58:32;;;;;;;115.82;34.72;;;2.10;99.90;;;;;;4928597;28;20103;-79
2020/12/12 05:00:57;;;;;;;130.60;33.75;;;2.10;99.90;;;;;;4926013;28;20115;-79
2020/12/12 05:03:22;;;;;;;130.02;39.65;;;2.10;99.90;;;;;;4909641;28;20082;-80
2020/12/12 05:05:47;;;;;;;136.25;36.75;;;2.60;99.90;;;;;;4916399;28;20449;-81
2020/12/12 05:08:11;;;;;;;128.57;38.97;;;2.10;99.90;;;;;;4911950;28;20083;-81
2020/12/12 05:10:43;;;;;;;138.05;37.50;;;2.10;99.90;;;;;;4926967;28;20165;-82
2020/12/12 05:13:17;;;;;;;135.02;35.72;;;2.10;99.90;;;;;;4923127;28;20078;-78
2020/12/12 05:15:40;;;;;;;129.18;36.33;;;2.10;99.90;;;;;;4923611;28;20173;-79
2020/12/12 05:18:03;;;;;;;142.90;37.20;;;2.10;99.90;;;;;;4909353;28;20136;-79
2020/12/12 05:20:33;;;;;;;140.88;37.28;;;2.20;99.90;;;;;;4925233;28;20493;-79
2020/12/12 05:22:57;;;;;;;164.77;41.42;;;2.20;99.90;;;;;;4933633;28;20156;-80
2020/12/12 05:25:20;;;;;;;149.20;38.28;;;2.20;99.90;;;;;;4921880;28;20166;-80
2020/12/12 05:27:45;;;;;;;121.78;34.15;;;2.20;99.90;;;;;;4930604;28;20159;-80
2020/12/12 05:30:08;;;;;;;129.25;35.60;;;2.20;99.90;;;;;;4921698;28;20185;-80
2020/12/12 05:32:31;;;;;;;121.35;35.15;;;2.20;99.90;;;;;;4930414;28;20199;-80
2020/12/12 05:34:54;;;;;;;132.95;40.03;;;2.20;99.90;;;;;;4928514;28;20092;-80
2020/12/12 05:37:19;;;;;;;130.32;36.35;;;2.20;99.90;;;;;;4930084;28;20088;-80
2020/12/12 05:39:42;;;;;;;128.82;35.63;;;2.20;99.90;;;;;;4930611;28;20088;-79
2020/12/12 05:42:06;;;;;;;131.60;32.90;;;2.20;99.90;;;;;;4930771;28;20084;-79
2020/12/12 05:44:32;;;;;;;113.85;31.90;;;2.10;99.90;;;;;;4920059;28;20102;-79
2020/12/12 05:46:55;;;;;;;114.45;34.72;;;2.10;99.90;;;;;;4937251;27;20085;-80
2020/12/12 05:49:20;;;;;;;113.68;32.70;;;2.20;99.90;;;;;;4931407;27;20171;-80
2020/12/12 05:51:44;;;;;;;117.47;33.38;;;2.20;99.90;;;;;;4930501;28;20623;-80
2020/12/12 05:54:07;;;;;;;119.05;31.25;;;2.20;99.90;;;;;;4927870;28;20091;-80
2020/12/12 05:56:31;;;;;;;105.97;27.70;;;2.20;99.90;;;;;;4929731;28;20176;-79
2020/12/12 05:58:56;;;;;;;132.80;33.42;;;2.20;99.90;;;;;;4921306;28;20087;-79
2020/12/12 06:01:21;;;;;;;107.88;29.17;;;2.20;99.90;;;;;;4921679;28;20092;-80
2020/12/12 06:03:53;;;;;;;108.68;29.65;;;2.20;99.90;;;;;;4929393;28;20140;-80
2020/12/12 06:06:21;;;;;;;113.85;29.15;;;2.10;99.90;;;;;;4930202;28;20103;-78
2020/12/12 06:08:58;;;;;;;117.47;29.35;;;2.10;99.90;;;;;;4939594;28;20099;-80
2020/12/12 06:11:22;;;;;;;123.35;33.10;;;2.10;99.90;;;;;;4934025;27;20527;-80
2020/12/12 06:13:50;;;;;;;100.57;29.25;;;2.10;99.90;;;;;;4929367;27;20114;-79
2020/12/12 06:16:15;;;;;;;112.05;29.83;;;2.10;99.90;;;;;;4920386;28;20152;-79
2020/12/12 06:18:42;;;;;;;;;;;2.10;99.90;;;;;;4935259;27;20155;-80
2020/12/12 06:21:09;;;;;;;117.80;32.08;;;2.10;99.90;;;;;;4941855;27;19965;-79
2020/12/12 06:23:37;;;;;;;130.07;35.03;;;2.10;99.90;;;;;;4946244;27;20581;-80
2020/12/12 06:26:00;;;;;;;115.63;31.13;;;2.00;99.90;;;;;;4919630;27;20170;-80
2020/12/12 06:28:27;;;;;;;134.73;33.50;;;2.10;99.90;;;;;;4919398;28;20538;-80
2020/12/12 06:30:52;;;;;;;123.85;32.78;;;2.10;99.90;;;;;;4931060;28;20083;-79
2020/12/12 06:33:16;;;;;;;119.07;31.98;;;2.00;99.90;;;;;;4929270;28;20183;-79
2020/12/12 06:35:40;;;;;;;127.70;34.80;;;2.10;99.90;;;;;;4941100;27;20528;-79
2020/12/12 06:38:26;;;;;;;145.25;34.72;;;2.10;99.90;;;;;;4932768;28;20119;-79
2020/12/12 06:40:53;;;;;;;118.88;31.38;;;2.00;99.90;;;;;;4929780;28;20202;-80
2020/12/12 06:43:37;;;;;;;120.00;30.80;;;2.00;99.90;;;;;;4931600;28;20430;-79
2020/12/12 06:46:02;;;;;;;134.55;32.63;;;2.00;99.90;;;;;;4927026;28;20094;-80
2020/12/12 06:48:28;;;;;;;140.70;32.83;;;2.00;99.90;;;;;;4931452;28;20518;-80
2020/12/12 06:50:52;;;;;;;142.80;37.50;;;2.00;99.90;;;;;;4933157;28;20582;-80
2020/12/12 06:53:19;;;;;;;129.43;32.22;;;2.00;99.90;;;;;;4930829;28;20105;-82
2020/12/12 06:55:42;;;;;;;109.10;30.17;;;1.90;99.90;;;;;;4932195;28;20598;-81
2020/12/12 06:58:23;;;;;;;141.48;32.92;;;1.90;99.90;;;;;;4926672;28;20168;-81
2020/12/12 07:00:46;;;;;;;106.10;29.75;;;1.90;99.90;;;;;;4933276;28;20091;-80
2020/12/12 07:03:09;;;;;;;142.20;32.33;;;1.90;99.90;;;;;;4933251;28;20181;-80
2020/12/12 07:05:33;;;;;;;123.80;29.55;;;1.90;99.90;;;;;;4937143;27;20182;-80
2020/12/12 07:08:02;;;;;;;122.85;30.83;;;1.90;99.90;;;;;;4924584;28;20119;-80
2020/12/12 07:10:25;;;;;;;121.35;31.08;;;1.90;99.90;;;;;;4941283;27;20140;-81
2020/12/12 07:12:48;;;;;;;124.20;32.08;;;1.90;99.90;;;;;;4933483;27;20091;-79
2020/12/12 07:15:11;;;;;;;144.55;33.53;;;1.90;99.90;;;;;;4939705;27;20454;-80
2020/12/12 07:17:34;;;;;;;134.52;34.55;;;;;;;;;;4940339;27;20653;-80
2020/12/12 07:19:58;;;;;;;139.82;33.35;;;1.90;99.90;;;;;;4946898;27;20547;-80
2020/12/12 07:22:22;;;;;;;121.82;29.88;;;1.90;99.90;;;;;;4934933;28;20126;-80
2020/12/12 07:24:46;;;;;;;127.18;29.58;;;1.90;99.90;;;;;;4932284;28;20097;-81
2020/12/12 07:27:09;;;;;;;122.05;29.65;;;1.90;99.90;;;;;;4932711;28;20107;-79
2020/12/12 07:29:33;;;;;;;115.03;28.25;;;1.90;99.90;;;;;;4933537;28;21449;-80
2020/12/12 07:31:56;;;;;;;120.88;28.75;;;1.90;99.90;;;;;;4931176;28;20167;-79
2020/12/12 07:34:21;;;;;;;137.30;31.27;;;2.00;99.90;;;;;;4924911;27;20079;-80
2020/12/12 07:36:43;;;;;;;119.47;27.75;;;2.00;99.90;;;;;;4934344;27;20091;-80
2020/12/12 07:39:10;;;;;;;119.18;30.63;;;2.00;99.90;;;;;;4951232;27;20173;-80
2020/12/12 07:41:44;;;;;;;113.28;27.58;;;2.00;99.90;;;;;;4936090;27;20543;-80
2020/12/12 07:44:09;;;;;;;111.15;27.92;;;1.90;99.90;;;;;;4910360;28;20094;-79
2020/12/12 07:46:39;;;;;;;107.75;27.75;;;2.00;99.90;;;;;;4929747;28;20117;-81
2020/12/12 07:49:03;;;;;;;120.00;28.30;;;2.00;99.90;;;;;;4932554;28;20088;-81
2020/12/12 07:51:26;;;;;;;127.70;32.28;;;2.00;99.90;;;;;;4930238;28;20162;-80
2020/12/12 07:53:50;;;;;;;108.18;25.83;;;2.00;99.90;;;;;;4932292;28;20136;-80
2020/12/12 07:56:18;;;;;;;143.38;31.27;;;2.00;99.90;;;;;;4945530;27;20552;-80
2020/12/12 07:58:43;;;;;;;121.43;30.05;;;2.00;99.90;;;;;;4928033;28;20091;-80
2020/12/12 08:01:06;;;;;;;126.35;29.10;;;2.00;99.90;;;;;;4931572;28;20487;-81
2020/12/12 08:03:31;;;;;;;103.15;25.05;;;2.00;99.90;;;;;;4926615;27;21168;-80
2020/12/12 08:06:06;;;;;;;125.20;28.90;;;2.00;99.90;;;;;;4932754;27;20134;-80
2020/12/12 08:08:30;;;;;;;136.43;29.67;;;2.00;99.90;;;;;;4917121;28;20080;-80
2020/12/12 08:10:58;;;;;;;131.00;30.92;;;2.00;99.90;;;;;;4935470;27;20105;-80
2020/12/12 08:13:23;;;;;;;125.85;29.30;;;2.00;99.90;;;;;;4928521;27;20087;-79
2020/12/12 08:15:51;;;;;;;129.15;30.75;;;;;;;;;;4940392;27;20114;-79
2020/12/12 08:18:14;;;;;;;117.60;30.55;;;2.10;99.90;;;;;;4931656;28;20175;-80
2020/12/12 08:20:37;;;;;;;128.20;30.25;;;2.10;99.90;;;;;;4930960;28;20077;-77
2020/12/12 08:23:02;;;;;;;125.35;28.05;;;2.10;99.90;;;;;;4932694;28;20163;-80
2020/12/12 08:25:26;;;;;;;142.95;31.77;;;2.10;99.90;;;;;;4942002;27;20170;-80
2020/12/12 08:27:49;;;;;;;137.90;28.88;;;2.10;99.90;;;;;;4925240;28;20090;-80
2020/12/12 08:30:13;;;;;;;135.27;32.83;;;2.10;99.90;;;;;;4930636;28;20205;-81
2020/12/12 08:32:41;;;;;;;129.02;31.58;;;2.20;99.90;;;;;;4930893;28;20796;-81
2020/12/12 08:35:20;;;;;;;148.65;32.42;;;2.10;99.90;;;;;;4922399;28;20484;-80
2020/12/12 08:37:55;;;;;;;136.00;30.75;;;2.10;99.90;;;;;;4931584;28;20082;-81
2020/12/12 08:40:18;;;;;;;121.38;28.42;;;2.20;99.90;;;;;;4932563;28;20078;-79
2020/12/12 08:42:55;;;;;;;126.88;29.73;;;2.20;99.90;;;;;;4927514;28;20107;-79
2020/12/12 08:45:19;;;;;;;151.05;33.75;;;2.20;99.90;;;;;;4929956;28;20267;-79
2020/12/12 08:47:43;;;;;;;129.65;29.92;;;2.20;99.90;;;;;;4939218;27;20086;-80
2020/12/12 08:50:06;;;;;;;138.02;32.13;;;2.20;99.90;;;;;;4939743;27;20086;-79
2020/12/12 08:52:29;;;;;;;130.75;29.98;;;2.30;99.90;;;;;;4937330;27;20513;-78
2020/12/12 08:54:58;;;;;;;140.07;29.15;;;2.30;99.90;;;;;;4932807;28;20442;-79
2020/12/12 08:57:21;;;;;;;136.68;34.10;;;2.30;99.90;;;;;;4917575;28;20086;-80
2020/12/12 08:59:44;;;;;;;161.55;38.60;;;2.30;99.90;;;;;;4934070;28;20089;-79
2020/12/12 09:02:40;;;;;;;132.23;31.58;;;2.30;99.90;;;;;;4863675;28;20603;-79
2020/12/12 09:05:45;;;;;;;120.50;29.60;;;2.30;99.90;;;;;;4869781;28;20087;-79
2020/12/12 09:08:42;;;;;;;153.25;35.15;;;2.30;99.90;;;;;;4879905;28;20103;-79
2020/12/12 09:11:44;;;;;;;171.35;37.92;;;2.30;99.90;;;;;;4870790;27;20115;-78
2020/12/12 09:14:34;;;;;;;144.07;32.95;;;2.40;99.90;;;;;;4871974;27;20461;-79
2020/12/12 09:17:02;;;;;;;133.30;28.95;;;2.40;99.90;;;;;;4873810;27;20128;-79
2020/12/12 09:20:00;;;;;;;133.90;27.58;;;2.40;99.90;;;;;;4875234;27;20579;-80
2020/12/12 09:22:57;;;;;;;140.77;29.75;;;2.40;99.90;;;;;;4871652;27;20226;-79
2020/12/12 09:25:55;;;;;;;142.68;30.15;;;2.50;99.90;;;;;;4869478;27;20997;-79
2020/12/12 09:28:18;;;;;;;135.90;28.25;;;2.60;99.90;;;;;;4900660;28;20087;-79
2020/12/12 09:31:07;;;;;;;129.23;30.08;;;2.70;99.90;;;;;;4915803;28;20203;-78
2020/12/12 09:33:48;;;;;;;151.07;30.80;;;2.70;99.90;;;;;;4865643;28;20098;-79
2020/12/12 09:36:53;;;;;;;124.40;29.38;;;2.70;99.90;;;;;;4867414;28;20487;-79
2020/12/12 10:03:33;;;;;;;108.15;26.67;;;2.80;99.90;;;;;;4884477;28;20095;-83
2020/12/12 10:09:23;;;;;;;104.82;29.38;;;2.90;99.90;;;;;;4868548;27;20098;-78
2020/12/12 10:29:44;;;;;;;107.07;26.27;;;3.00;99.90;;;;;;4895499;27;20116;-79
2020/12/12 10:32:31;;;;;;;101.60;24.10;;;3.10;99.90;;;;;;4877837;27;20090;-79
2020/12/12 10:35:22;;;;;;;102.20;25.17;;;3.00;99.90;;;;;;4865137;28;20482;-82
2020/12/12 10:43:57;;;;;;;110.07;26.80;;;3.20;99.90;;;;;;4865683;28;20116;-80
2020/12/12 10:46:31;;;;;;;112.03;31.63;;;3.10;99.90;;;;;;4881921;27;21904;-82
2020/12/12 10:48:56;;;;;;;118.88;28.95;;;3.10;99.90;;;;;;4873357;27;20086;-81
2020/12/12 10:51:18;;;;;;;122.45;29.50;;;3.10;99.90;;;;;;4939972;28;20710;-82
2020/12/12 10:53:41;;;;;;;110.55;28.73;;;3.10;99.90;;;;;;4922081;28;20132;-80
2020/12/12 10:56:04;;;;;;;111.35;29.23;;;3.20;99.90;;;;;;4936184;27;20163;-79
2020/12/12 10:58:28;;;;;;;131.77;31.77;;;3.40;99.90;;;;;;4924355;28;20088;-83
2020/12/12 11:00:52;;;;;;;131.13;29.85;;;3.20;99.90;;;;;;4940818;27;20128;-84
2020/12/12 11:03:16;;;;;;;124.50;29.90;;;3.20;99.90;;;;;;4921468;28;20086;-80
2020/12/12 11:05:39;;;;;;;114.80;29.58;;;3.20;99.90;;;;;;4942080;27;20113;-81
2020/12/12 11:08:02;;;;;;;124.93;29.50;;;3.30;99.90;;;;;;4934828;27;20151;-82
2020/12/12 11:10:26;;;;;;;126.45;31.55;;;3.20;99.90;;;;;;4937482;27;20549;-82
2020/12/12 11:12:50;;;;;;;128.40;29.90;;;3.30;99.90;;;;;;4943411;27;20081;-83
2020/12/12 11:15:13;;;;;;;120.38;28.48;;;3.40;99.90;;;;;;4940363;27;20491;-82
2020/12/12 11:17:38;;;;;;;121.28;29.55;;;3.40;99.90;;;;;;4932935;28;20082;-83
2020/12/12 11:20:02;;;;;;;123.95;31.50;;;3.90;99.90;;;;;;4924064;28;20548;-82
2020/12/12 11:22:26;;;;;;;125.20;31.40;;;3.60;99.90;;;;;;4920681;28;20134;-82
2020/12/12 11:24:50;;;;;;;129.68;30.77;;;3.70;99.90;;;;;;4928600;27;20173;-82
2020/12/12 11:27:13;;;;;;;120.60;31.83;;;3.80;99.90;;;;;;4943400;27;20098;-83
2020/12/12 11:29:36;;;;;;;102.50;27.33;;;3.70;99.90;;;;;;4929871;27;20499;-82
2020/12/12 11:32:00;;;;;;;133.93;28.95;;;3.70;99.90;;;;;;4940949;28;20202;-82
2020/12/12 11:34:28;;;;;;;103.45;27.45;;;3.70;99.90;;;;;;4942194;27;21140;-83
2020/12/12 11:37:13;;;;;;;132.10;30.58;;;3.60;99.90;;;;;;4922257;28;20525;-83
2020/12/12 11:39:42;;;;;;;122.78;28.67;;;3.60;99.90;;;;;;4910736;28;20078;-83
2020/12/12 11:45:23;;;;;;;114.20;28.15;;;3.60;99.90;;;;;;4929456;28;20093;-83
2020/12/12 11:47:46;;;;;;;130.35;29.55;;;3.60;99.90;;;;;;4923960;28;20123;-83
2020/12/12 11:50:13;;;;;;;121.28;30.80;;;3.60;99.90;;;;;;4935260;28;20574;-83
2020/12/12 11:52:38;;;;;;;126.30;29.67;;;3.60;99.90;;;;;;4938652;27;20110;-83
2020/12/12 11:55:01;;;;;;;114.10;29.52;;;3.60;99.90;;;;;;4931754;27;20128;-83
2020/12/12 11:57:25;;;;;;;111.95;28.45;;;3.70;99.90;;;;;;4932345;28;20173;-84
2020/12/12 11:59:49;;;;;;;118.03;30.02;;;3.80;99.90;;;;;;4933662;28;20114;-84
2020/12/12 12:02:12;;;;;;;112.90;30.23;;;3.90;99.90;;;;;;4933332;28;20133;-84
2020/12/12 12:04:35;;;;;;;103.38;27.40;;;3.90;99.90;;;;;;4931418;28;20116;-82
2020/12/12 12:06:59;;;;;;;104.13;27.17;;;3.80;99.90;;;;;;4933416;28;20088;-83
2020/12/12 12:09:30;;;;;;;90.50;24.67;;;;;;;;;;4931221;28;20837;-81
2020/12/12 12:11:53;;;;;;;88.50;25.65;;;3.40;99.90;;;;;;4929235;28;20468;-81
2020/12/12 12:14:17;;;;;;;97.85;25.55;;;3.40;99.90;;;;;;4929406;28;20493;-81
2020/12/12 12:16:40;;;;;;;103.43;25.90;;;3.40;99.90;;;;;;4920375;28;20106;-82
2020/12/12 12:19:03;;;;;;;75.13;22.42;;;3.40;99.90;;;;;;4921276;28;20125;-81
2020/12/12 12:21:26;;;;;;;92.53;25.60;;;3.50;99.90;;;;;;4939119;27;20528;-82
2020/12/12 12:23:49;;;;;;;74.53;21.27;;;3.50;99.90;;;;;;4943487;27;20086;-81
2020/12/12 12:26:15;;;;;;;83.80;23.95;;;3.40;99.90;;;;;;4933517;27;20090;-82
2020/12/12 12:28:38;;;;;;;83.93;23.50;;;3.30;99.90;;;;;;4928592;28;20163;-79
2020/12/12 12:31:01;;;;;;;82.35;25.00;;;3.20;99.90;;;;;;4929425;28;20086;-81
2020/12/12 12:33:24;;;;;;;79.45;23.45;;;3.20;99.90;;;;;;4927016;28;20131;-83
2020/12/12 12:35:46;;;;;;;90.13;24.35;;;3.20;99.90;;;;;;4930544;28;20144;-80
2020/12/12 12:38:09;;;;;;;81.40;22.45;;;3.10;99.90;;;;;;4928876;28;20239;-81
2020/12/12 12:40:35;;;;;;;75.72;21.70;;;3.20;99.90;;;;;;4930858;28;20090;-81
2020/12/12 12:43:02;;;;;;;79.25;25.38;;;3.20;99.90;;;;;;4925904;28;20094;-81
2020/12/12 12:45:26;;;;;;;79.60;20.67;;;3.20;99.90;;;;;;4930581;28;20110;-81
2020/12/12 12:47:49;;;;;;;104.82;26.95;;;3.00;99.90;;;;;;4930153;28;20191;-82
2020/12/12 12:50:13;;;;;;;86.82;22.85;;;3.00;99.90;;;;;;4928651;28;23457;-81
2020/12/12 12:52:36;;;;;;;92.03;22.92;;;3.00;99.90;;;;;;4934990;27;20654;-82
2020/12/12 12:54:59;;;;;;;95.53;22.95;;;3.10;99.90;;;;;;4934325;28;20096;-81
2020/12/12 12:57:21;;;;;;;91.40;22.67;;;3.10;99.90;;;;;;4948386;27;20517;-81
2020/12/12 12:59:45;;;;;;;88.45;23.02;;;3.10;99.90;;;;;;4932728;28;20146;-82
2020/12/12 13:02:08;;;;;;;87.70;24.27;;;3.00;99.90;;;;;;4933812;27;20121;-81
2020/12/12 13:04:31;;;;;;;89.32;23.23;;;3.00;99.90;;;;;;4937780;28;20146;-81
2020/12/12 13:06:53;;;;;;;86.85;21.30;;;3.00;99.90;;;;;;4939261;28;20172;-82
2020/12/12 13:09:16;;;;;;;85.70;24.00;;;;;;;;;;4929119;28;20549;-81
2020/12/12 13:11:41;;;;;;;81.10;22.48;;;3.00;99.90;;;;;;4929502;28;20684;-81
2020/12/12 13:14:03;;;;;;;78.70;21.20;;;3.00;99.90;;;;;;4929232;28;20449;-81
2020/12/12 13:16:29;;;;;;;78.00;22.33;;;3.00;99.90;;;;;;4926628;28;20193;-81
2020/12/12 13:18:56;;;;;;;;;;;3.00;99.90;;;;;;4930122;28;20093;-79
2020/12/12 13:21:25;;;;;;;66.22;18.17;;;2.90;99.90;;;;;;4928811;28;19969;-81
2020/12/12 13:23:48;;;;;;;69.25;20.60;;;3.00;99.90;;;;;;4919045;28;20086;-82